createdAt,value
2018-09-19T00:01:34.162Z,76.70
2018-09-19T00:04:01.511Z,76.70
2018-09-19T00:06:28.871Z,77.00
2018-09-19T00:08:56.378Z,77.30
2018-09-19T00:11:23.710Z,77.40
2018-09-19T00:13:51.089Z,77.60
2018-09-19T00:16:18.442Z,77.60
2018-09-19T00:18:45.880Z,77.90
2018-09-19T00:21:13.441Z,78.30
2018-09-19T00:23:40.813Z,79.00
2018-09-19T00:26:08.157Z,79.20
2018-09-19T00:28:35.634Z,79.70
2018-09-19T00:31:03.105Z,79.70
2018-09-19T00:33:30.463Z,81.10
2018-09-19T00:35:57.896Z,80.70
2018-09-19T00:38:25.270Z,81.10
2018-09-19T00:40:53.388Z,81.00
2018-09-19T00:43:20.738Z,81.00
2018-09-19T00:45:48.169Z,80.80
2018-09-19T00:48:15.510Z,80.60
2018-09-19T00:50:42.927Z,80.40
2018-09-19T00:53:10.328Z,80.40
2018-09-19T00:55:37.928Z,80.40
2018-09-19T00:58:05.567Z,80.50
2018-09-19T01:00:33.079Z,80.60
2018-09-19T01:03:00.499Z,80.60
2018-09-19T01:05:28.000Z,80.70
2018-09-19T01:07:55.435Z,80.80
2018-09-19T01:10:22.834Z,80.80
2018-09-19T01:12:50.276Z,80.80
2018-09-19T01:15:17.636Z,81.00
2018-09-19T01:17:45.019Z,81.20
2018-09-19T01:20:12.369Z,81.40
2018-09-19T01:22:39.810Z,81.70
2018-09-19T01:25:07.171Z,82.10
2018-09-19T01:27:34.523Z,82.30
2018-09-19T01:30:01.954Z,82.50
2018-09-19T01:32:29.455Z,82.90
2018-09-19T01:34:56.905Z,83.40
2018-09-19T01:37:24.533Z,83.80
2018-09-19T01:39:51.938Z,84.60
2018-09-19T01:42:19.300Z,85.30
2018-09-19T01:44:46.736Z,85.80
2018-09-19T01:47:14.132Z,87.30
2018-09-19T01:49:41.495Z,88.00
2018-09-19T01:52:08.907Z,89.20
2018-09-19T01:54:36.404Z,90.00
2018-09-19T01:57:03.850Z,90.40
2018-09-19T01:59:31.205Z,91.00
2018-09-19T02:01:58.565Z,91.50
2018-09-19T02:04:25.947Z,92.10
2018-09-19T02:06:53.519Z,92.60
2018-09-19T02:09:20.984Z,93.30
2018-09-19T02:11:48.355Z,93.70
2018-09-19T02:14:15.727Z,94.20
2018-09-19T02:16:43.081Z,94.90
2018-09-19T02:19:10.605Z,95.80
2018-09-19T02:21:38.007Z,96.10
2018-09-19T02:24:05.384Z,97.00
2018-09-19T02:26:32.740Z,97.80
2018-09-19T02:29:00.104Z,98.90
2018-09-19T02:31:27.716Z,99.70
2018-09-19T02:33:55.928Z,99.90
2018-09-19T02:36:24.316Z,99.90
2018-09-19T02:38:52.688Z,99.90
2018-09-19T02:41:20.473Z,99.90
2018-09-19T02:43:48.348Z,99.90
2018-09-19T02:46:15.939Z,99.90
2018-09-19T02:48:43.927Z,99.90
2018-09-19T02:51:11.488Z,99.90
2018-09-19T02:53:38.948Z,99.90
2018-09-19T02:56:06.313Z,99.90
2018-09-19T02:58:33.817Z,99.90
2018-09-19T03:01:01.242Z,99.90
2018-09-19T03:03:28.611Z,99.90
2018-09-19T03:05:56.496Z,99.90
2018-09-19T03:08:23.850Z,99.90
2018-09-19T03:10:51.230Z,99.90
2018-09-19T03:13:18.725Z,99.90
2018-09-19T03:15:46.055Z,99.90
2018-09-19T03:18:13.509Z,99.90
2018-09-19T03:20:40.880Z,99.90
2018-09-19T03:23:08.222Z,99.90
2018-09-19T03:25:35.620Z,99.90
2018-09-19T03:28:02.967Z,99.90
2018-09-19T03:30:30.386Z,99.90
2018-09-19T03:32:57.728Z,99.90
2018-09-19T03:35:25.150Z,99.90
2018-09-19T03:37:52.433Z,99.90
2018-09-19T03:40:19.827Z,99.90
2018-09-19T03:42:47.292Z,99.90
2018-09-19T03:45:14.686Z,99.90
2018-09-19T03:47:42.093Z,99.90
2018-09-19T03:50:09.505Z,99.90
2018-09-19T03:52:36.849Z,99.90
2018-09-19T03:55:04.299Z,99.90
2018-09-19T03:57:31.713Z,99.90
2018-09-19T03:59:59.064Z,99.90
2018-09-19T04:02:26.455Z,99.90
2018-09-19T04:04:53.935Z,99.90
2018-09-19T04:07:21.382Z,99.90
2018-09-19T04:09:48.776Z,99.90
2018-09-19T04:12:16.182Z,99.90
2018-09-19T04:14:43.536Z,99.90
2018-09-19T04:17:10.959Z,99.90
2018-09-19T04:19:38.346Z,99.90
2018-09-19T04:22:05.708Z,99.90
2018-09-19T04:24:33.151Z,99.90
2018-09-19T04:27:00.540Z,99.90
2018-09-19T04:29:27.896Z,99.90
2018-09-19T04:31:55.238Z,99.90
2018-09-19T04:34:22.630Z,99.90
2018-09-19T04:36:50.006Z,99.90
2018-09-19T04:39:17.413Z,99.90
2018-09-19T04:41:44.767Z,99.90
2018-09-19T04:44:12.195Z,99.90
2018-09-19T04:46:40.253Z,99.90
2018-09-19T04:49:08.107Z,99.90
2018-09-19T04:51:35.878Z,99.90
2018-09-19T04:54:03.249Z,99.90
2018-09-19T04:56:30.651Z,99.90
2018-09-19T04:58:58.092Z,99.90
2018-09-19T05:01:25.445Z,99.90
2018-09-19T05:03:52.884Z,99.90
2018-09-19T05:06:20.238Z,99.90
2018-09-19T05:08:47.655Z,99.90
2018-09-19T05:11:15.397Z,99.90
2018-09-19T05:13:42.795Z,99.90
2018-09-19T05:16:10.147Z,99.90
2018-09-19T05:18:37.546Z,99.90
2018-09-19T05:21:05.001Z,99.90
2018-09-19T05:23:32.338Z,99.90
2018-09-19T05:25:59.806Z,99.90
2018-09-19T05:28:27.159Z,99.90
2018-09-19T05:30:54.512Z,99.90
2018-09-19T05:33:21.955Z,99.90
2018-09-19T05:35:49.404Z,99.90
2018-09-19T05:38:16.774Z,99.90
2018-09-19T05:40:44.147Z,99.90
2018-09-19T05:43:11.515Z,99.90
2018-09-19T05:45:38.970Z,99.90
2018-09-19T05:48:06.463Z,99.90
2018-09-19T05:50:33.920Z,99.90
2018-09-19T05:53:01.331Z,99.90
2018-09-19T05:55:28.767Z,99.90
2018-09-19T05:57:56.115Z,99.90
2018-09-19T06:00:23.494Z,99.90
2018-09-19T06:02:50.967Z,99.90
2018-09-19T06:05:19.009Z,99.90
2018-09-19T06:07:46.407Z,99.90
2018-09-19T06:10:13.838Z,99.90
2018-09-19T06:12:41.380Z,99.90
2018-09-19T06:15:08.752Z,99.90
2018-09-19T06:17:36.221Z,99.90
2018-09-19T06:20:03.660Z,99.90
2018-09-19T06:22:31.022Z,99.90
2018-09-19T06:24:58.393Z,99.90
2018-09-19T06:27:25.755Z,99.90
2018-09-19T06:29:53.167Z,99.90
2018-09-19T06:32:20.704Z,99.90
2018-09-19T06:34:49.107Z,99.90
2018-09-19T06:37:16.611Z,99.90
2018-09-19T06:39:44.056Z,99.90
2018-09-19T06:42:11.412Z,99.90
2018-09-19T06:44:38.779Z,99.90
2018-09-19T06:47:06.231Z,99.90
2018-09-19T06:49:33.807Z,99.90
2018-09-19T06:52:01.705Z,99.90
2018-09-19T06:54:29.060Z,99.90
2018-09-19T06:56:56.428Z,99.90
2018-09-19T06:59:23.800Z,99.90
2018-09-19T07:01:51.240Z,99.90
2018-09-19T07:04:18.880Z,99.90
2018-09-19T07:06:46.258Z,99.90
2018-09-19T07:09:13.628Z,99.90
2018-09-19T07:11:40.974Z,99.90
2018-09-19T07:14:08.446Z,99.90
2018-09-19T07:16:35.803Z,99.90
2018-09-19T07:19:03.316Z,99.90
2018-09-19T07:21:30.980Z,99.90
2018-09-19T07:23:58.337Z,99.90
2018-09-19T07:26:25.692Z,99.90
2018-09-19T07:28:55.997Z,99.90
2018-09-19T07:31:23.346Z,99.90
2018-09-19T07:33:50.739Z,99.90
2018-09-19T07:36:18.099Z,99.90
2018-09-19T07:38:45.492Z,99.90
2018-09-19T07:41:13.186Z,99.90
2018-09-19T07:43:40.944Z,99.90
2018-09-19T07:46:08.370Z,99.90
2018-09-19T07:48:35.732Z,99.90
2018-09-19T07:51:03.104Z,99.90
2018-09-19T07:53:35.447Z,99.90
2018-09-19T07:56:03.343Z,99.90
2018-09-19T07:58:31.262Z,99.90
2018-09-19T08:00:58.965Z,99.90
2018-09-19T08:03:26.295Z,99.90
2018-09-19T08:05:53.843Z,99.90
2018-09-19T08:08:21.742Z,99.90
2018-09-19T08:10:49.092Z,99.90
2018-09-19T08:13:16.466Z,99.90
2018-09-19T08:15:44.128Z,99.90
2018-09-19T08:18:11.610Z,99.90
2018-09-19T08:20:38.980Z,99.90
2018-09-19T08:23:07.054Z,99.90
2018-09-19T08:25:34.498Z,99.90
2018-09-19T08:28:02.141Z,99.90
2018-09-19T08:30:29.555Z,99.90
2018-09-19T08:32:56.945Z,99.90
2018-09-19T08:35:24.403Z,99.90
2018-09-19T08:37:51.862Z,99.90
2018-09-19T08:40:19.247Z,99.90
2018-09-19T08:42:46.623Z,99.90
2018-09-19T08:45:14.065Z,99.90
2018-09-19T08:47:41.523Z,99.90
2018-09-19T08:50:08.920Z,99.90
2018-09-19T08:52:36.276Z,99.90
2018-09-19T08:55:04.532Z,99.90
2018-09-19T08:57:31.882Z,99.90
2018-09-19T08:59:59.297Z,99.90
2018-09-19T09:02:26.756Z,99.90
2018-09-19T09:04:54.195Z,99.90
2018-09-19T09:07:21.596Z,99.90
2018-09-19T09:09:48.925Z,99.90
2018-09-19T09:12:16.329Z,99.90
2018-09-19T09:14:43.712Z,99.90
2018-09-19T09:17:11.074Z,99.90
2018-09-19T09:19:38.730Z,99.90
2018-09-19T09:22:06.085Z,99.50
2018-09-19T09:24:33.455Z,99.20
2018-09-19T09:27:00.897Z,99.40
2018-09-19T09:29:28.314Z,99.30
2018-09-19T09:31:55.702Z,99.20
2018-09-19T09:34:23.151Z,99.10
2018-09-19T09:36:50.821Z,99.10
2018-09-19T09:39:18.296Z,98.70
2018-09-19T09:41:45.673Z,98.90
2018-09-19T09:44:13.564Z,98.90
2018-09-19T09:46:41.032Z,98.20
2018-09-19T09:49:08.654Z,98.10
2018-09-19T09:51:36.184Z,98.10
2018-09-19T09:54:03.548Z,98.10
2018-09-19T09:56:33.568Z,98.10
2018-09-19T09:59:01.043Z,97.90
2018-09-19T10:01:28.397Z,97.80
2018-09-19T10:03:55.905Z,97.30
2018-09-19T10:06:23.362Z,97.10
2018-09-19T10:08:50.703Z,97.00
2018-09-19T10:11:18.097Z,96.90
2018-09-19T10:13:46.947Z,96.70
2018-09-19T10:16:14.536Z,96.80
2018-09-19T10:18:41.907Z,96.50
2018-09-19T10:21:09.310Z,96.70
2018-09-19T10:23:36.661Z,96.40
2018-09-19T10:26:04.096Z,96.20
2018-09-19T10:28:31.480Z,96.00
2018-09-19T10:30:58.921Z,95.90
2018-09-19T10:33:26.396Z,95.60
2018-09-19T10:35:53.819Z,95.90
2018-09-19T10:38:21.342Z,95.60
2018-09-19T10:40:48.767Z,95.50
2018-09-19T10:43:16.218Z,95.60
2018-09-19T10:45:43.706Z,95.60
2018-09-19T10:48:11.142Z,95.70
2018-09-19T10:50:38.521Z,95.50
2018-09-19T10:53:05.891Z,95.30
2018-09-19T10:55:33.430Z,94.90
2018-09-19T10:58:00.951Z,94.70
2018-09-19T11:00:28.480Z,94.40
2018-09-19T11:02:55.977Z,94.10
2018-09-19T11:05:23.437Z,93.70
2018-09-19T11:07:50.799Z,93.80
2018-09-19T11:10:18.163Z,93.20
2018-09-19T11:12:45.536Z,93.20
2018-09-19T11:15:13.058Z,93.30
2018-09-19T11:17:40.445Z,93.20
2018-09-19T11:20:08.324Z,92.70
2018-09-19T11:22:35.695Z,92.40
2018-09-19T11:25:05.101Z,92.30
2018-09-19T11:27:32.512Z,92.20
2018-09-19T11:29:59.917Z,92.10
2018-09-19T11:32:27.499Z,92.20
2018-09-19T11:34:54.856Z,92.10
2018-09-19T11:37:22.272Z,91.90
2018-09-19T11:39:49.691Z,91.90
2018-09-19T11:42:17.263Z,91.80
2018-09-19T11:44:44.732Z,91.50
2018-09-19T11:47:12.146Z,91.50
2018-09-19T11:49:39.496Z,91.30
2018-09-19T11:52:06.868Z,91.10
2018-09-19T11:54:34.431Z,90.90
2018-09-19T11:57:01.886Z,90.80
2018-09-19T11:59:29.269Z,90.90
2018-09-19T12:01:56.757Z,90.90
2018-09-19T12:04:24.052Z,90.60
2018-09-19T12:06:51.422Z,90.30
2018-09-19T12:09:18.791Z,90.20
2018-09-19T12:11:46.407Z,90.20
2018-09-19T12:14:13.873Z,89.40
2018-09-19T12:16:41.261Z,89.00
2018-09-19T12:19:09.812Z,89.50
2018-09-19T12:21:37.402Z,88.00
2018-09-19T12:24:04.776Z,87.00
2018-09-19T12:26:32.285Z,86.70
2018-09-19T12:28:59.572Z,86.20
2018-09-19T12:31:27.012Z,85.60
2018-09-19T12:33:54.363Z,85.60
2018-09-19T12:36:22.268Z,84.70
2018-09-19T12:38:49.894Z,84.50
2018-09-19T12:41:17.348Z,84.10
2018-09-19T12:43:46.715Z,84.10
2018-09-19T12:46:14.274Z,83.90
2018-09-19T12:48:41.638Z,83.50
2018-09-19T12:51:09.072Z,82.30
2018-09-19T12:53:36.451Z,81.20
2018-09-19T12:56:04.428Z,81.00
2018-09-19T12:58:31.896Z,80.10
2018-09-19T13:00:59.295Z,79.60
2018-09-19T13:03:26.747Z,79.10
2018-09-19T13:05:54.244Z,79.40
2018-09-19T13:08:21.580Z,78.30
2018-09-19T13:10:49.088Z,78.30
2018-09-19T13:13:16.770Z,77.30
2018-09-19T13:15:44.222Z,77.10
2018-09-19T13:18:11.637Z,76.20
2018-09-19T13:20:39.074Z,76.10
2018-09-19T13:23:06.579Z,75.50
2018-09-19T13:25:34.045Z,75.40
2018-09-19T13:28:01.612Z,75.20
2018-09-19T13:30:29.064Z,75.20
2018-09-19T13:32:56.615Z,75.40
2018-09-19T13:35:24.351Z,75.90
2018-09-19T13:37:51.816Z,75.30
2018-09-19T13:40:19.249Z,74.10
2018-09-19T13:42:46.852Z,74.20
2018-09-19T13:45:14.345Z,74.20
2018-09-19T13:47:41.991Z,74.00
2018-09-19T13:50:12.365Z,74.10
2018-09-19T13:52:39.803Z,73.90
2018-09-19T13:55:08.253Z,73.10
2018-09-19T13:57:35.854Z,72.80
2018-09-19T14:00:03.470Z,72.10
2018-09-19T14:02:31.163Z,72.10
2018-09-19T14:04:58.745Z,71.40
2018-09-19T14:07:26.413Z,71.50
2018-09-19T14:09:53.863Z,71.10
2018-09-19T14:12:21.433Z,70.70
2018-09-19T14:14:48.841Z,70.90
2018-09-19T14:17:16.353Z,70.10
2018-09-19T14:19:43.995Z,69.70
2018-09-19T14:22:11.436Z,69.60
2018-09-19T14:24:38.834Z,69.00
2018-09-19T14:27:06.288Z,68.60
2018-09-19T14:29:33.791Z,67.90
2018-09-19T14:32:01.359Z,67.80
2018-09-19T14:34:28.807Z,67.30
2018-09-19T14:36:56.248Z,66.90
2018-09-19T14:39:23.706Z,66.60
2018-09-19T14:41:51.078Z,66.10
2018-09-19T14:44:18.528Z,65.70
2018-09-19T14:46:46.198Z,65.50
2018-09-19T14:49:13.554Z,65.30
2018-09-19T14:51:41.115Z,65.10
2018-09-19T14:54:08.562Z,64.90
2018-09-19T14:56:35.947Z,64.50
2018-09-19T14:59:03.382Z,64.50
2018-09-19T15:01:30.750Z,64.20
2018-09-19T15:03:58.167Z,64.10
2018-09-19T15:06:25.575Z,63.90
2018-09-19T15:08:52.970Z,63.80
2018-09-19T15:11:20.310Z,63.10
2018-09-19T15:13:47.741Z,63.10
2018-09-19T15:16:15.096Z,63.50
2018-09-19T15:18:42.475Z,62.90
2018-09-19T15:21:11.366Z,63.00
2018-09-19T15:23:38.825Z,62.70
2018-09-19T15:26:06.310Z,62.40
2018-09-19T15:28:34.187Z,62.00
2018-09-19T15:31:01.599Z,61.90
2018-09-19T15:33:29.004Z,61.40
2018-09-19T15:35:56.508Z,62.20
2018-09-19T15:38:24.012Z,60.90
2018-09-19T15:40:51.383Z,60.70
2018-09-19T15:43:18.853Z,60.50
2018-09-19T15:45:46.260Z,60.60
2018-09-19T15:48:13.847Z,60.30
2018-09-19T15:50:41.236Z,60.00
2018-09-19T15:53:08.673Z,59.70
2018-09-19T15:55:36.239Z,59.10
2018-09-19T15:58:03.750Z,58.60
2018-09-19T16:00:31.169Z,57.90
2018-09-19T16:02:58.613Z,57.50
2018-09-19T16:05:26.161Z,56.60
2018-09-19T16:07:53.949Z,55.70
2018-09-19T16:10:21.341Z,55.30
2018-09-19T16:12:48.715Z,54.80
2018-09-19T16:15:16.295Z,54.40
2018-09-19T16:17:43.882Z,54.30
2018-09-19T16:20:11.430Z,54.10
2018-09-19T16:22:39.109Z,54.40
2018-09-19T16:25:06.715Z,55.00
2018-09-19T16:27:34.265Z,55.00
2018-09-19T16:30:01.707Z,55.30
2018-09-19T16:32:29.191Z,56.00
2018-09-19T16:34:56.682Z,55.50
2018-09-19T16:37:24.099Z,55.80
2018-09-19T16:39:52.587Z,56.30
2018-09-19T16:42:20.086Z,57.00
2018-09-19T16:44:47.842Z,57.60
2018-09-19T16:47:15.453Z,58.50
2018-09-19T16:49:42.992Z,59.10
2018-09-19T16:52:11.842Z,60.00
2018-09-19T16:54:39.328Z,60.90
2018-09-19T16:57:06.769Z,61.30
2018-09-19T16:59:34.428Z,61.70
2018-09-19T17:02:01.799Z,62.40
2018-09-19T17:04:29.284Z,62.80
2018-09-19T17:06:56.726Z,64.00
2018-09-19T17:09:24.285Z,64.30
2018-09-19T17:11:51.757Z,65.10
2018-09-19T17:14:19.195Z,65.40
2018-09-19T17:16:46.875Z,66.50
2018-09-19T17:19:14.475Z,66.40
2018-09-19T17:21:41.971Z,67.10
2018-09-19T17:24:09.379Z,67.70
2018-09-19T17:26:36.920Z,68.20
2018-09-19T17:29:04.665Z,68.60
2018-09-19T17:31:32.422Z,69.10
2018-09-19T17:33:59.879Z,69.60
2018-09-19T17:36:27.406Z,70.10
2018-09-19T17:38:55.032Z,70.50
2018-09-19T17:41:22.528Z,70.70
2018-09-19T17:43:50.408Z,71.40
2018-09-19T17:46:18.134Z,71.80
2018-09-19T17:48:45.538Z,72.00
2018-09-19T17:51:13.069Z,72.50
2018-09-19T17:53:40.511Z,72.70
2018-09-19T17:56:07.972Z,73.00
2018-09-19T17:58:35.393Z,73.30
2018-09-19T18:01:02.845Z,73.40
2018-09-19T18:03:30.424Z,73.60
2018-09-19T18:05:57.859Z,73.90
2018-09-19T18:08:25.324Z,74.20
2018-09-19T18:10:52.684Z,74.50
2018-09-19T18:13:20.046Z,74.80
2018-09-19T18:15:47.411Z,75.10
2018-09-19T18:18:15.057Z,75.30
2018-09-19T18:20:42.534Z,76.60
2018-09-19T18:23:09.921Z,75.70
2018-09-19T18:25:37.344Z,76.00
2018-09-19T18:28:04.985Z,76.00
2018-09-19T18:30:33.486Z,76.50
2018-09-19T18:33:00.957Z,76.60
2018-09-19T18:35:28.500Z,76.90
2018-09-19T18:37:55.945Z,77.20
2018-09-19T18:40:23.398Z,77.20
2018-09-19T18:42:50.799Z,77.40
2018-09-19T18:45:19.066Z,77.50
2018-09-19T18:47:46.444Z,77.70
2018-09-19T18:50:13.929Z,77.70
2018-09-19T18:52:41.284Z,78.00
2018-09-19T18:55:09.417Z,78.20
2018-09-19T18:57:36.766Z,78.50
2018-09-19T19:00:05.544Z,78.80
2018-09-19T19:02:32.984Z,79.00
2018-09-19T19:05:00.415Z,79.30
2018-09-19T19:07:27.949Z,79.40
2018-09-19T19:09:55.881Z,79.70
2018-09-19T19:12:23.413Z,79.80
2018-09-19T19:14:50.806Z,80.10
2018-09-19T19:17:18.702Z,80.20
2018-09-19T19:19:46.815Z,80.60
2018-09-19T19:22:14.187Z,81.00
2018-09-19T19:24:41.582Z,81.20
2018-09-19T19:27:09.060Z,81.70
2018-09-19T19:29:36.488Z,81.90
2018-09-19T19:32:03.989Z,82.00
2018-09-19T19:34:32.564Z,82.20
2018-09-19T19:37:00.102Z,82.40
2018-09-19T19:39:27.575Z,82.60
2018-09-19T19:41:55.030Z,82.80
2018-09-19T19:44:22.453Z,83.20
2018-09-19T19:46:50.368Z,83.40
2018-09-19T19:49:17.839Z,83.60
2018-09-19T19:51:45.281Z,83.80
2018-09-19T19:54:12.966Z,84.60
2018-09-19T19:56:40.577Z,84.30
2018-09-19T19:59:08.960Z,84.80
2018-09-19T20:01:36.556Z,84.90
2018-09-19T20:04:03.976Z,85.20
2018-09-19T20:06:31.744Z,85.50
2018-09-19T20:08:59.262Z,85.90
2018-09-19T20:11:26.748Z,85.90
2018-09-19T20:13:54.221Z,86.20
2018-09-19T20:16:21.762Z,86.50
2018-09-19T20:18:49.293Z,87.00
2018-09-19T20:21:17.012Z,87.30
2018-09-19T20:23:44.445Z,87.60
2018-09-19T20:26:11.931Z,87.80
2018-09-19T20:28:39.326Z,87.70
2018-09-19T20:31:06.802Z,87.40
2018-09-19T20:33:34.217Z,87.40
2018-09-19T20:36:01.722Z,87.50
2018-09-19T20:38:29.151Z,87.40
2018-09-19T20:40:56.561Z,88.20
2018-09-19T20:43:24.141Z,87.70
2018-09-19T20:45:51.764Z,87.90
2018-09-19T20:48:19.167Z,88.00
2018-09-19T20:50:46.654Z,88.30
2018-09-19T20:53:14.347Z,88.20
2018-09-19T20:55:41.796Z,88.50
2018-09-19T20:58:09.256Z,88.40
2018-09-19T21:00:37.181Z,88.70
2018-09-19T21:03:04.987Z,88.60
2018-09-19T21:05:32.776Z,88.80
2018-09-19T21:08:00.184Z,89.10
2018-09-19T21:10:27.720Z,89.00
2018-09-19T21:12:55.226Z,89.60
2018-09-19T21:15:23.149Z,89.50
2018-09-19T21:17:50.945Z,89.50
2018-09-19T21:20:18.363Z,89.80
2018-09-19T21:22:45.965Z,89.90
2018-09-19T21:25:13.392Z,90.00
2018-09-19T21:27:40.863Z,90.10
2018-09-19T21:30:08.345Z,90.10
2018-09-19T21:32:35.812Z,90.20
2018-09-19T21:35:03.356Z,90.30
2018-09-19T21:37:31.309Z,90.40
2018-09-19T21:39:58.717Z,90.50
2018-09-19T21:42:26.214Z,90.60
2018-09-19T21:44:53.592Z,90.60
2018-09-19T21:47:21.175Z,90.70
2018-09-19T21:49:48.604Z,90.70
2018-09-19T21:52:16.335Z,91.00
2018-09-19T21:54:43.736Z,91.10
2018-09-19T21:57:11.259Z,91.40
2018-09-19T21:59:38.731Z,91.30
2018-09-19T22:02:06.334Z,91.40
2018-09-19T22:04:33.725Z,91.50
2018-09-19T22:07:01.132Z,91.50
2018-09-19T22:09:28.586Z,91.70
2018-09-19T22:11:56.031Z,91.80
2018-09-19T22:14:24.306Z,91.90
2018-09-19T22:16:51.697Z,92.00
2018-09-19T22:19:19.099Z,92.00
2018-09-19T22:21:46.566Z,92.00
2018-09-19T22:24:14.208Z,92.10
2018-09-19T22:26:41.593Z,92.00
2018-09-19T22:29:08.964Z,92.20
2018-09-19T22:31:36.408Z,92.30
2018-09-19T22:34:03.839Z,92.30
2018-09-19T22:36:31.263Z,92.30
2018-09-19T22:38:59.245Z,92.40
2018-09-19T22:41:26.719Z,92.50
2018-09-19T22:43:54.603Z,92.60
2018-09-19T22:46:22.116Z,92.70
2018-09-19T22:48:49.556Z,92.90
2018-09-19T22:51:17.134Z,93.00
2018-09-19T22:53:44.623Z,93.00
2018-09-19T22:56:12.184Z,93.10
2018-09-19T22:58:39.635Z,93.20
2018-09-19T23:01:07.084Z,93.20
2018-09-19T23:03:34.477Z,93.20
2018-09-19T23:06:01.919Z,93.20
2018-09-19T23:08:29.304Z,93.30
2018-09-19T23:10:56.796Z,93.20
2018-09-19T23:13:24.382Z,93.30
2018-09-19T23:15:51.820Z,93.20
2018-09-19T23:18:19.644Z,93.30
2018-09-19T23:20:47.995Z,93.40
2018-09-19T23:23:15.423Z,93.40
2018-09-19T23:25:42.815Z,93.50
2018-09-19T23:28:10.255Z,93.50
2018-09-19T23:30:37.649Z,93.50
2018-09-19T23:33:05.569Z,93.50
2018-09-19T23:35:33.020Z,93.40
2018-09-19T23:38:00.546Z,93.50
2018-09-19T23:40:27.974Z,93.60
2018-09-19T23:42:55.487Z,93.70
2018-09-19T23:45:22.903Z,93.80
2018-09-19T23:47:50.362Z,93.80
2018-09-19T23:50:17.772Z,93.80
2018-09-19T23:52:45.189Z,93.80
2018-09-19T23:55:12.587Z,93.70
2018-09-19T23:57:40.212Z,93.70
